createdAt,value
2023-02-02T00:01:01.331Z,23.52
2023-02-02T00:04:04.489Z,20.75
2023-02-02T00:07:07.593Z,23.10
2023-02-02T00:10:11.099Z,22.58
2023-02-02T00:13:14.583Z,22.53
2023-02-02T00:16:39.759Z,19.50
2023-02-02T00:19:42.672Z,20.25
2023-02-02T00:22:45.484Z,28.77
2023-02-02T00:25:51.241Z,17.70
2023-02-02T00:28:54.119Z,30.60
2023-02-02T00:31:58.646Z,21.83
2023-02-02T00:35:01.555Z,22.58
2023-02-02T00:38:04.375Z,21.27
2023-02-02T00:41:07.517Z,22.52
2023-02-02T00:44:28.772Z,22.97
2023-02-02T00:47:31.512Z,22.00
2023-02-02T00:50:34.671Z,26.98
2023-02-02T00:53:38.202Z,27.02
2023-02-02T00:56:41.712Z,28.70
2023-02-02T00:59:44.515Z,27.30
2023-02-02T01:02:47.563Z,23.13
2023-02-02T01:05:52.172Z,21.35
2023-02-02T01:08:55.083Z,24.23
2023-02-02T01:11:58.826Z,29.75
2023-02-02T01:15:02.685Z,25.93
2023-02-02T01:18:07.345Z,24.08
2023-02-02T01:21:12.787Z,25.88
2023-02-02T01:24:15.576Z,24.85
2023-02-02T01:27:18.685Z,24.23
2023-02-02T01:30:21.613Z,31.77
2023-02-02T01:33:25.608Z,30.02
2023-02-02T01:36:28.388Z,27.67
2023-02-02T01:39:34.216Z,23.90
2023-02-02T01:42:37.087Z,26.02
2023-02-02T01:45:39.885Z,22.77
2023-02-02T01:48:47.048Z,22.40
2023-02-02T01:51:59.363Z,23.02
2023-02-02T01:55:08.836Z,19.48
2023-02-02T01:58:17.576Z,17.40
2023-02-02T02:01:20.779Z,18.50
2023-02-02T02:04:25.447Z,18.33
2023-02-02T02:07:28.442Z,19.77
2023-02-02T02:10:31.417Z,20.40
2023-02-02T02:13:56.708Z,19.67
2023-02-02T02:17:25.654Z,20.97
2023-02-02T02:21:09.944Z,20.63
2023-02-02T02:24:54.339Z,21.02
2023-02-02T02:28:25.209Z,18.15
2023-02-02T02:31:53.160Z,19.30
2023-02-02T02:35:17.320Z,21.20
2023-02-02T02:38:30.599Z,20.10
2023-02-02T02:41:37.822Z,20.35
2023-02-02T02:44:42.100Z,18.98
2023-02-02T02:47:45.455Z,22.70
2023-02-02T02:50:48.352Z,26.60
2023-02-02T02:53:51.151Z,31.15
2023-02-02T02:57:09.943Z,24.48
2023-02-02T03:00:35.455Z,22.65
2023-02-02T03:03:55.433Z,29.80
2023-02-02T03:07:05.458Z,30.27
2023-02-02T03:10:12.610Z,27.27
2023-02-02T03:13:16.995Z,26.75
2023-02-02T03:16:19.686Z,28.02
2023-02-02T03:19:22.491Z,30.75
2023-02-02T03:22:25.519Z,30.67
2023-02-02T03:25:28.496Z,30.30
2023-02-02T03:28:32.632Z,30.17
2023-02-02T03:31:35.481Z,31.52
2023-02-02T03:34:43.229Z,23.80
2023-02-02T03:37:46.199Z,27.47
2023-02-02T03:40:49.050Z,29.40
2023-02-02T03:43:51.858Z,29.52
2023-02-02T03:46:55.242Z,24.00
2023-02-02T03:49:58.066Z,25.80
2023-02-02T03:53:00.913Z,29.30
2023-02-02T03:56:04.094Z,23.77
2023-02-02T03:59:07.169Z,24.23
2023-02-02T04:02:09.939Z,23.27
2023-02-02T04:05:12.778Z,25.48
2023-02-02T04:08:15.782Z,25.90
2023-02-02T04:11:19.405Z,23.20
2023-02-02T04:14:22.198Z,23.55
2023-02-02T04:17:25.044Z,25.60
2023-02-02T04:20:27.849Z,25.83
2023-02-02T04:23:31.369Z,26.77
2023-02-02T04:26:34.242Z,21.45
2023-02-02T04:29:37.179Z,27.90
2023-02-02T04:32:40.183Z,21.25
2023-02-02T04:35:43.947Z,20.38
2023-02-02T04:38:50.179Z,16.37
2023-02-02T04:41:52.969Z,17.63
2023-02-02T04:44:55.658Z,19.85
2023-02-02T04:47:58.450Z,18.95
2023-02-02T04:51:03.012Z,8.35
2023-02-02T04:54:07.345Z,11.27
2023-02-02T04:57:10.098Z,7.13
2023-02-02T05:00:18.677Z,7.38
2023-02-02T05:03:21.555Z,6.63
2023-02-02T05:06:24.667Z,4.13
2023-02-02T05:09:27.587Z,6.00
2023-02-02T05:12:30.793Z,4.18
2023-02-02T05:15:33.835Z,5.07
2023-02-02T05:18:36.681Z,4.95
2023-02-02T05:21:39.453Z,6.38
2023-02-02T05:24:42.220Z,4.20
2023-02-02T05:27:46.603Z,8.65
2023-02-02T05:30:49.769Z,4.40
2023-02-02T05:33:52.913Z,5.90
2023-02-02T05:36:55.689Z,6.72
2023-02-02T05:39:58.589Z,2.23
2023-02-02T05:43:01.407Z,1.38
2023-02-02T05:46:08.948Z,2.60
2023-02-02T05:49:14.158Z,0.65
2023-02-02T05:52:21.713Z,1.33
2023-02-02T05:55:24.788Z,3.37
2023-02-02T05:58:28.484Z,0.60
2023-02-02T06:01:31.440Z,0.90
2023-02-02T06:04:34.292Z,0.40
2023-02-02T06:07:37.094Z,2.65
2023-02-02T06:10:42.665Z,3.00
2023-02-02T06:13:46.354Z,1.02
2023-02-02T06:16:49.111Z,1.48
2023-02-02T06:19:51.872Z,0.40
2023-02-02T06:22:54.878Z,2.15
2023-02-02T06:25:57.773Z,2.00
2023-02-02T06:29:00.805Z,1.08
2023-02-02T06:32:04.185Z,1.98
2023-02-02T06:35:08.169Z,1.77
2023-02-02T06:38:11.542Z,4.10
2023-02-02T06:41:14.319Z,3.77
2023-02-02T06:44:19.402Z,3.13
2023-02-02T06:47:22.264Z,5.10
2023-02-02T06:50:25.156Z,4.53
2023-02-02T06:53:28.422Z,2.92
2023-02-02T06:56:31.248Z,2.23
2023-02-02T06:59:43.583Z,4.13
2023-02-02T07:02:47.731Z,5.82
2023-02-02T07:05:51.056Z,7.20
2023-02-02T07:09:03.488Z,5.47
2023-02-02T07:12:10.347Z,4.30
2023-02-02T07:15:18.187Z,5.57
2023-02-02T07:18:21.306Z,5.05
2023-02-02T07:21:26.657Z,3.75
2023-02-02T07:24:29.595Z,4.10
2023-02-02T07:27:34.271Z,1.50
2023-02-02T07:30:37.746Z,1.65
2023-02-02T07:33:42.561Z,2.85
2023-02-02T07:36:45.698Z,3.22
2023-02-02T07:39:48.573Z,2.95
2023-02-02T07:42:51.463Z,3.80
2023-02-02T07:45:54.435Z,1.67
2023-02-02T07:48:58.084Z,2.92
2023-02-02T07:52:01.032Z,1.58
2023-02-02T07:55:14.387Z,4.38
2023-02-02T07:58:17.884Z,2.73
2023-02-02T08:01:23.228Z,3.10
2023-02-02T08:04:26.297Z,4.30
2023-02-02T08:07:29.367Z,8.73
2023-02-02T08:10:32.185Z,8.05
2023-02-02T08:13:35.017Z,5.03
2023-02-02T08:16:37.935Z,5.07
2023-02-02T08:19:40.685Z,12.18
2023-02-02T08:22:43.675Z,7.40
2023-02-02T08:25:46.535Z,8.77
2023-02-02T08:29:03.021Z,9.23
2023-02-02T08:32:06.033Z,9.07
2023-02-02T08:35:09.214Z,8.77
2023-02-02T08:38:12.200Z,9.13
2023-02-02T08:41:18.567Z,4.53
2023-02-02T08:44:21.307Z,2.50
2023-02-02T08:47:30.001Z,2.40
2023-02-02T08:50:34.417Z,1.38
2023-02-02T08:53:38.034Z,3.85
2023-02-02T08:56:40.917Z,3.25
2023-02-02T08:59:43.836Z,4.37
2023-02-02T09:02:51.198Z,1.92
2023-02-02T09:05:56.494Z,2.90
2023-02-02T09:09:01.980Z,6.97
2023-02-02T09:12:05.032Z,3.60
2023-02-02T09:15:08.129Z,4.30
2023-02-02T09:18:11.126Z,6.35
2023-02-02T09:21:16.246Z,4.57
2023-02-02T09:24:19.284Z,4.35
2023-02-02T09:27:22.517Z,4.13
2023-02-02T09:30:25.388Z,3.10
2023-02-02T09:33:28.294Z,3.33
2023-02-02T09:36:32.327Z,2.13
2023-02-02T09:39:35.348Z,2.15
2023-02-02T09:42:44.274Z,2.47
2023-02-02T09:45:58.657Z,3.07
2023-02-02T09:49:11.472Z,2.63
2023-02-02T09:52:20.822Z,3.40
2023-02-02T09:55:30.139Z,7.97
2023-02-02T09:59:02.147Z,5.57
2023-02-02T10:02:22.362Z,1.63
2023-02-02T10:05:30.305Z,2.78
2023-02-02T10:08:46.007Z,2.22
2023-02-02T10:12:17.480Z,3.40
2023-02-02T10:15:39.857Z,4.18
2023-02-02T10:18:56.605Z,5.10
2023-02-02T10:22:20.065Z,4.97
2023-02-02T10:25:26.653Z,7.95
2023-02-02T10:28:44.950Z,6.43
2023-02-02T10:32:06.727Z,10.23
2023-02-02T10:35:27.610Z,11.40
2023-02-02T10:38:53.162Z,16.95
2023-02-02T10:42:34.271Z,8.75
2023-02-02T10:45:39.512Z,5.85
2023-02-02T10:48:46.630Z,6.45
2023-02-02T10:52:08.256Z,7.60
2023-02-02T10:55:14.292Z,7.00
2023-02-02T10:58:39.173Z,4.63
2023-02-02T11:01:43.324Z,5.70
2023-02-02T11:05:07.112Z,8.00
2023-02-02T11:08:13.894Z,2.53
2023-02-02T11:11:38.610Z,3.20
2023-02-02T11:14:47.889Z,5.95
2023-02-02T11:17:51.116Z,11.23
2023-02-02T11:20:54.997Z,6.63
2023-02-02T11:24:23.988Z,5.90
2023-02-02T11:27:33.511Z,2.08
2023-02-02T11:30:38.534Z,3.00
2023-02-02T11:33:41.324Z,4.05
2023-02-02T11:37:00.431Z,4.30
2023-02-02T11:40:30.181Z,10.03
2023-02-02T11:43:52.535Z,3.13
2023-02-02T11:46:56.947Z,2.65
2023-02-02T11:50:02.726Z,1.98
2023-02-02T11:53:07.064Z,2.15
2023-02-02T11:56:19.240Z,4.77
2023-02-02T11:59:34.966Z,3.85
2023-02-02T12:02:45.361Z,5.57
2023-02-02T12:05:50.093Z,4.60
2023-02-02T12:08:58.499Z,5.18
2023-02-02T12:12:30.934Z,9.20
2023-02-02T12:15:55.459Z,4.85
2023-02-02T12:19:24.652Z,4.50
2023-02-02T12:22:36.370Z,2.30
2023-02-02T12:26:27.362Z,1.10
2023-02-02T12:29:59.347Z,2.37
2023-02-02T12:33:08.416Z,3.10
2023-02-02T12:36:14.133Z,5.68
2023-02-02T12:39:30.564Z,2.95
2023-02-02T12:42:51.552Z,3.30
2023-02-02T12:46:21.632Z,3.43
2023-02-02T12:50:03.019Z,2.00
2023-02-02T12:53:30.712Z,3.60
2023-02-02T12:56:40.244Z,2.92
2023-02-02T13:00:25.012Z,4.65
2023-02-02T13:03:35.158Z,3.60
2023-02-02T13:06:53.989Z,7.53
2023-02-02T13:10:28.653Z,8.32
2023-02-02T13:13:37.700Z,8.63
2023-02-02T13:16:48.614Z,3.55
2023-02-02T13:19:56.428Z,3.27
2023-02-02T13:23:03.536Z,3.55
2023-02-02T13:26:20.158Z,5.40
2023-02-02T13:29:50.737Z,3.15
2023-02-02T13:32:58.327Z,4.57
2023-02-02T13:36:06.307Z,4.93
2023-02-02T13:39:45.243Z,3.63
2023-02-02T13:43:04.904Z,2.33
2023-02-02T13:46:24.123Z,1.95
2023-02-02T13:49:44.893Z,3.65
2023-02-02T13:53:02.851Z,5.27
2023-02-02T13:56:49.100Z,6.50
2023-02-02T13:59:55.286Z,4.22
2023-02-02T14:03:03.469Z,3.70
2023-02-02T14:06:17.109Z,7.00
2023-02-02T14:09:20.415Z,15.47
2023-02-02T14:12:33.183Z,10.65
2023-02-02T14:15:44.699Z,6.47
2023-02-02T14:18:51.048Z,4.15
2023-02-02T14:22:01.479Z,8.45
2023-02-02T14:25:24.897Z,6.00
2023-02-02T14:28:43.463Z,11.18
2023-02-02T14:31:55.238Z,8.82
2023-02-02T14:35:00.420Z,9.80
2023-02-02T14:38:14.708Z,15.15
2023-02-02T14:42:06.669Z,8.00
2023-02-02T14:45:21.989Z,5.35
2023-02-02T14:48:25.797Z,7.10
2023-02-02T14:51:32.199Z,5.07
2023-02-02T14:54:40.105Z,6.75
2023-02-02T14:57:43.051Z,5.47
2023-02-02T15:01:05.674Z,7.03
2023-02-02T15:04:21.216Z,5.70
2023-02-02T15:07:23.894Z,12.35
2023-02-02T15:10:54.130Z,10.18
2023-02-02T15:14:07.192Z,8.00
2023-02-02T15:17:31.271Z,5.10
2023-02-02T15:20:44.805Z,10.20
2023-02-02T15:23:47.939Z,12.30
2023-02-02T15:26:54.709Z,17.45
2023-02-02T15:30:03.849Z,20.37
2023-02-02T15:33:28.124Z,20.00
2023-02-02T15:36:37.768Z,9.90
2023-02-02T15:39:43.524Z,10.80
2023-02-02T15:42:54.243Z,6.72
2023-02-02T15:46:04.879Z,8.13
2023-02-02T15:49:36.044Z,9.93
2023-02-02T15:52:47.471Z,12.40
2023-02-02T15:55:50.751Z,17.98
2023-02-02T15:58:56.347Z,20.65
2023-02-02T16:02:11.749Z,21.37
2023-02-02T16:05:36.728Z,19.60
2023-02-02T16:08:41.224Z,19.05
2023-02-02T16:11:45.911Z,28.52
2023-02-02T16:14:54.346Z,38.60
2023-02-02T16:18:00.735Z,27.97
2023-02-02T16:21:16.239Z,25.20
2023-02-02T16:24:41.810Z,18.33
2023-02-02T16:27:47.558Z,24.63
2023-02-02T16:30:52.597Z,19.65
2023-02-02T16:33:57.161Z,23.70
2023-02-02T16:37:15.311Z,25.92
2023-02-02T16:40:29.731Z,30.98
2023-02-02T16:43:33.730Z,27.38
2023-02-02T16:46:44.342Z,34.10
2023-02-02T16:49:47.232Z,27.43
2023-02-02T16:53:03.658Z,28.40
2023-02-02T16:56:07.932Z,25.02
2023-02-02T16:59:25.539Z,24.98
2023-02-02T17:02:41.164Z,25.70
2023-02-02T17:05:54.540Z,30.60
2023-02-02T17:08:57.351Z,32.42
2023-02-02T17:12:32.135Z,29.55
2023-02-02T17:15:37.143Z,28.65
2023-02-02T17:18:40.397Z,25.17
2023-02-02T17:21:43.503Z,22.87
2023-02-02T17:24:48.302Z,21.73
2023-02-02T17:27:51.421Z,26.02
2023-02-02T17:31:00.674Z,23.42
2023-02-02T17:34:04.436Z,21.35
2023-02-02T17:37:07.730Z,21.53
2023-02-02T17:40:18.214Z,17.35
2023-02-02T17:43:21.397Z,14.00
2023-02-02T17:46:24.535Z,15.27
2023-02-02T17:49:27.436Z,9.85
2023-02-02T17:52:30.291Z,9.10
2023-02-02T17:55:38.954Z,9.57
2023-02-02T17:58:42.396Z,18.88
2023-02-02T18:01:46.506Z,16.27
2023-02-02T18:04:49.296Z,14.73
2023-02-02T18:07:55.014Z,9.77
2023-02-02T18:10:59.573Z,6.78
2023-02-02T18:14:02.622Z,8.70
2023-02-02T18:17:08.368Z,9.68
2023-02-02T18:20:15.231Z,7.53
2023-02-02T18:23:19.404Z,11.13
2023-02-02T18:26:23.296Z,11.23
2023-02-02T18:29:26.376Z,13.30
2023-02-02T18:32:29.496Z,14.02
2023-02-02T18:35:32.245Z,13.13
2023-02-02T18:38:35.085Z,15.53
2023-02-02T18:41:38.162Z,10.30
2023-02-02T18:44:42.944Z,6.30
2023-02-02T18:47:45.858Z,8.05
2023-02-02T18:50:48.977Z,9.95
2023-02-02T18:53:51.956Z,12.20
2023-02-02T18:56:54.919Z,11.00
2023-02-02T18:59:57.755Z,9.05
2023-02-02T19:03:00.828Z,7.38
2023-02-02T19:06:23.357Z,5.88
2023-02-02T19:09:26.414Z,5.40
2023-02-02T19:12:29.458Z,6.40
2023-02-02T19:15:39.446Z,5.85
2023-02-02T19:18:44.142Z,4.43
2023-02-02T19:21:47.128Z,2.65
2023-02-02T19:24:52.967Z,5.07
2023-02-02T19:27:55.822Z,2.72
2023-02-02T19:31:01.572Z,4.63
2023-02-02T19:34:13.687Z,5.70
2023-02-02T19:37:28.676Z,3.30
2023-02-02T19:40:31.712Z,4.87
2023-02-02T19:43:36.635Z,3.00
2023-02-02T19:46:43.898Z,4.90
2023-02-02T19:49:47.048Z,5.80
2023-02-02T19:52:51.117Z,1.75
2023-02-02T19:55:54.755Z,3.47
2023-02-02T19:58:59.168Z,1.20
2023-02-02T20:02:41.549Z,4.70
2023-02-02T20:05:47.494Z,1.35
2023-02-02T20:08:51.616Z,1.95
2023-02-02T20:11:56.683Z,5.37
2023-02-02T20:14:59.707Z,3.65
2023-02-02T20:18:14.565Z,1.85
2023-02-02T20:21:34.491Z,4.68
2023-02-02T20:24:43.190Z,3.28
2023-02-02T20:27:46.308Z,3.83
2023-02-02T20:30:49.454Z,4.88
2023-02-02T20:33:55.492Z,2.65
2023-02-02T20:37:14.180Z,2.47
2023-02-02T20:40:20.153Z,2.60
2023-02-02T20:43:23.237Z,2.53
2023-02-02T20:46:26.104Z,3.55
2023-02-02T20:49:32.015Z,3.00
2023-02-02T20:52:35.573Z,2.42
2023-02-02T20:55:38.531Z,2.38
2023-02-02T20:58:41.347Z,2.00
2023-02-02T21:01:44.548Z,1.70
2023-02-02T21:04:48.839Z,5.05
2023-02-02T21:07:54.998Z,4.70
2023-02-02T21:10:57.794Z,3.70
2023-02-02T21:14:01.036Z,2.97
2023-02-02T21:17:14.384Z,6.75
2023-02-02T21:20:18.183Z,1.90
2023-02-02T21:23:22.032Z,1.83
2023-02-02T21:26:29.990Z,2.83
2023-02-02T21:29:33.497Z,4.40
2023-02-02T21:32:36.378Z,3.55
2023-02-02T21:35:39.252Z,5.00
2023-02-02T21:38:42.143Z,2.70
2023-02-02T21:41:45.433Z,5.22
2023-02-02T21:44:54.348Z,5.63
2023-02-02T21:48:05.319Z,4.13
2023-02-02T21:51:29.177Z,5.95
2023-02-02T21:54:37.714Z,5.55
2023-02-02T21:57:42.333Z,6.43
2023-02-02T22:00:45.748Z,7.73
2023-02-02T22:03:50.113Z,11.90
2023-02-02T22:07:09.519Z,11.15
2023-02-02T22:10:34.148Z,7.85
2023-02-02T22:13:36.843Z,11.57
2023-02-02T22:16:44.096Z,12.23
2023-02-02T22:19:46.968Z,11.68
2023-02-02T22:22:51.537Z,9.07
2023-02-02T22:25:56.413Z,7.97
2023-02-02T22:28:59.488Z,13.57
2023-02-02T22:32:02.495Z,13.50
2023-02-02T22:35:05.733Z,9.93
2023-02-02T22:38:09.618Z,12.32
2023-02-02T22:41:12.458Z,14.07
2023-02-02T22:44:15.511Z,9.90
2023-02-02T22:47:18.213Z,9.07
2023-02-02T22:50:26.794Z,7.18
2023-02-02T22:53:29.771Z,5.10
2023-02-02T22:56:32.696Z,7.63
2023-02-02T22:59:35.890Z,5.53
2023-02-02T23:02:40.916Z,5.47
2023-02-02T23:05:43.792Z,5.97
2023-02-02T23:08:46.838Z,3.45
2023-02-02T23:11:49.965Z,2.17
2023-02-02T23:14:52.838Z,3.53
2023-02-02T23:17:55.654Z,4.57
2023-02-02T23:20:58.729Z,2.25
2023-02-02T23:24:01.612Z,2.72
2023-02-02T23:27:04.927Z,5.47
2023-02-02T23:30:09.572Z,2.85
2023-02-02T23:33:12.342Z,1.90
2023-02-02T23:36:15.213Z,5.38
2023-02-02T23:39:18.110Z,3.28
2023-02-02T23:42:21.205Z,5.30
2023-02-02T23:45:24.078Z,2.22
2023-02-02T23:48:26.969Z,3.20
2023-02-02T23:51:30.012Z,3.20
2023-02-02T23:54:33.845Z,3.80
2023-02-02T23:57:37.891Z,3.15
